createdAt,value
2023-02-16T00:04:35.968Z,2.42
2023-02-16T00:14:39.180Z,2.40
2023-02-16T00:24:40.648Z,2.30
2023-02-16T00:34:42.351Z,2.60
2023-02-16T00:44:47.085Z,2.40
2023-02-16T00:54:48.636Z,2.50
2023-02-16T01:04:50.245Z,2.35
2023-02-16T01:14:54.638Z,2.30
2023-02-16T01:24:57.341Z,2.08
2023-02-16T01:34:59.980Z,2.38
2023-02-16T01:45:09.989Z,2.15
2023-02-16T01:55:22.317Z,2.38
2023-02-16T02:05:37.485Z,2.33
2023-02-16T02:15:40.446Z,2.17
2023-02-16T02:26:00.443Z,2.30
2023-02-16T02:36:27.407Z,2.35
2023-02-16T02:46:33.371Z,2.33
2023-02-16T02:56:53.812Z,2.50
2023-02-16T03:06:57.381Z,2.10
2023-02-16T03:17:19.993Z,2.15
2023-02-16T03:27:43.820Z,2.20
2023-02-16T03:37:47.136Z,2.27
2023-02-16T03:47:48.823Z,1.98
2023-02-16T03:57:50.391Z,2.15
2023-02-16T04:07:51.892Z,2.20
2023-02-16T04:17:54.149Z,2.00
2023-02-16T04:27:55.950Z,2.10
2023-02-16T04:37:57.409Z,2.17
2023-02-16T04:47:58.877Z,2.33
2023-02-16T04:58:00.607Z,2.53
2023-02-16T05:08:02.811Z,2.33
2023-02-16T05:18:04.441Z,2.10
2023-02-16T05:28:06.004Z,2.20
2023-02-16T05:38:07.513Z,2.08
2023-02-16T05:48:09.017Z,2.08
2023-02-16T05:58:10.658Z,2.05
2023-02-16T06:08:12.247Z,2.30
2023-02-16T06:18:14.034Z,1.92
2023-02-16T06:28:15.656Z,2.17
2023-02-16T06:38:17.179Z,2.17
2023-02-16T06:48:18.696Z,2.15
2023-02-16T06:58:20.455Z,2.30
2023-02-16T07:08:22.239Z,2.30
2023-02-16T07:18:23.732Z,2.35
2023-02-16T07:28:26.021Z,2.13
2023-02-16T07:38:27.549Z,2.28
2023-02-16T07:48:29.066Z,2.08
2023-02-16T07:58:30.611Z,2.03
2023-02-16T08:08:40.708Z,4.25
2023-02-16T08:18:42.220Z,4.53
2023-02-16T08:28:47.094Z,4.45
2023-02-16T08:38:50.740Z,4.43
2023-02-16T08:48:53.766Z,4.03
2023-02-16T08:58:57.130Z,4.07
2023-02-16T09:08:59.270Z,4.93
2023-02-16T09:19:04.657Z,5.30
2023-02-16T09:29:07.052Z,5.20
2023-02-16T09:39:08.550Z,4.60
2023-02-16T09:49:35.394Z,5.05
2023-02-16T09:59:51.842Z,5.13
2023-02-16T10:09:55.220Z,5.28
2023-02-16T10:20:06.118Z,5.45
2023-02-16T10:30:16.949Z,5.40
2023-02-16T10:40:36.618Z,5.40
2023-02-16T10:50:53.698Z,6.00
2023-02-16T11:01:16.589Z,6.38
2023-02-16T11:11:19.158Z,8.23
2023-02-16T11:21:20.612Z,8.38
2023-02-16T11:31:38.048Z,9.68
2023-02-16T11:41:49.957Z,10.77
2023-02-16T11:51:51.413Z,11.57
2023-02-16T12:02:14.490Z,11.55
2023-02-16T12:12:32.068Z,11.50
2023-02-16T12:22:39.718Z,11.93
2023-02-16T12:32:57.681Z,12.05
2023-02-16T12:43:09.056Z,13.05
2023-02-16T12:53:27.665Z,12.95
2023-02-16T13:03:39.334Z,9.70
2023-02-16T13:13:41.338Z,8.35
2023-02-16T13:24:07.677Z,8.18
2023-02-16T13:34:42.335Z,8.13
2023-02-16T13:44:50.569Z,7.22
2023-02-16T13:54:52.529Z,6.50
2023-02-16T14:04:57.628Z,7.45
2023-02-16T14:25:04.384Z,7.15
2023-02-16T14:35:19.840Z,6.23
2023-02-16T14:45:34.291Z,6.88
2023-02-16T14:56:03.529Z,7.80
2023-02-16T15:06:06.623Z,8.50
2023-02-16T15:16:13.870Z,6.85
2023-02-16T15:26:20.435Z,6.95
2023-02-16T15:36:35.415Z,7.55
2023-02-16T15:46:40.381Z,6.57
2023-02-16T16:06:48.683Z,6.17
2023-02-16T16:16:50.500Z,6.22
2023-02-16T16:26:57.413Z,6.57
2023-02-16T16:36:59.471Z,6.90
2023-02-16T16:47:12.959Z,7.05
2023-02-16T16:57:17.115Z,6.88
2023-02-16T17:07:18.591Z,6.43
2023-02-16T17:17:20.180Z,6.18
2023-02-16T17:27:23.003Z,5.82
2023-02-16T17:37:24.759Z,6.47
2023-02-16T17:47:26.250Z,6.65
2023-02-16T17:57:29.264Z,6.03
2023-02-16T18:07:31.045Z,7.15
2023-02-16T18:17:32.612Z,6.78
2023-02-16T18:27:34.097Z,7.30
2023-02-16T18:37:35.676Z,7.45
2023-02-16T18:47:37.499Z,7.35
2023-02-16T18:57:39.099Z,7.10
2023-02-16T19:07:40.743Z,7.32
2023-02-16T19:17:42.288Z,6.75
2023-02-16T19:27:44.297Z,7.20
2023-02-16T19:37:45.863Z,6.05
2023-02-16T19:47:50.056Z,5.85
2023-02-16T19:57:51.499Z,4.30
2023-02-16T20:07:53.018Z,5.93
2023-02-16T20:17:55.796Z,5.47
2023-02-16T20:27:58.079Z,5.15
2023-02-16T20:37:59.631Z,4.82
2023-02-16T20:48:03.963Z,4.50
2023-02-16T20:58:05.466Z,4.33
2023-02-16T21:08:06.920Z,4.15
2023-02-16T21:18:08.531Z,4.00
2023-02-16T21:28:10.287Z,3.75
2023-02-16T21:38:11.845Z,3.90
2023-02-16T21:48:32.131Z,3.35
2023-02-16T21:58:33.908Z,3.05
2023-02-16T22:08:37.956Z,3.10
2023-02-16T22:18:40.244Z,2.50
2023-02-16T22:28:41.749Z,2.80
2023-02-16T22:38:44.062Z,2.38
2023-02-16T22:48:45.597Z,2.20
2023-02-16T22:58:47.655Z,2.30
2023-02-16T23:08:57.783Z,1.90
2023-02-16T23:19:00.070Z,1.80
2023-02-16T23:29:02.297Z,2.00
2023-02-16T23:39:07.438Z,1.70
2023-02-16T23:59:10.364Z,1.40
